sensor_id;sensor_type;location;lat;lon;timestamp;temperature;humidity
35668;DHT22;22158;59.280;17.806;2023-05-27T00:01:47;8.40;99.90
35668;DHT22;22158;59.280;17.806;2023-05-27T00:04:12;8.40;99.90
35668;DHT22;22158;59.280;17.806;2023-05-27T00:06:38;8.40;99.90
35668;DHT22;22158;59.280;17.806;2023-05-27T00:09:03;8.30;99.90
35668;DHT22;22158;59.280;17.806;2023-05-27T00:11:29;8.30;99.90
35668;DHT22;22158;59.280;17.806;2023-05-27T00:13:55;8.30;99.90
35668;DHT22;22158;59.280;17.806;2023-05-27T00:16:20;8.30;99.90
35668;DHT22;22158;59.280;17.806;2023-05-27T00:18:47;8.30;99.90
35668;DHT22;22158;59.280;17.806;2023-05-27T00:21:13;8.30;99.90
35668;DHT22;22158;59.280;17.806;2023-05-27T00:23:39;8.30;99.90
35668;DHT22;22158;59.280;17.806;2023-05-27T00:26:05;8.30;99.90
35668;DHT22;22158;59.280;17.806;2023-05-27T00:28:30;8.30;99.90
35668;DHT22;22158;59.280;17.806;2023-05-27T00:30:57;8.20;99.90
35668;DHT22;22158;59.280;17.806;2023-05-27T00:33:23;8.20;99.90
35668;DHT22;22158;59.280;17.806;2023-05-27T00:35:49;8.20;99.90
35668;DHT22;22158;59.280;17.806;2023-05-27T00:38:15;8.20;99.90
35668;DHT22;22158;59.280;17.806;2023-05-27T00:40:40;8.20;99.90
35668;DHT22;22158;59.280;17.806;2023-05-27T00:43:06;8.30;99.90
35668;DHT22;22158;59.280;17.806;2023-05-27T00:45:32;8.30;99.90
35668;DHT22;22158;59.280;17.806;2023-05-27T00:47:58;8.30;99.90
35668;DHT22;22158;59.280;17.806;2023-05-27T00:50:26;8.30;99.90
35668;DHT22;22158;59.280;17.806;2023-05-27T00:52:52;8.30;99.90
35668;DHT22;22158;59.280;17.806;2023-05-27T00:55:21;8.30;99.90
35668;DHT22;22158;59.280;17.806;2023-05-27T00:57:47;8.30;99.90
35668;DHT22;22158;59.280;17.806;2023-05-27T01:00:13;8.30;99.90
35668;DHT22;22158;59.280;17.806;2023-05-27T01:02:39;8.30;99.90
35668;DHT22;22158;59.280;17.806;2023-05-27T01:05:09;8.20;99.90
35668;DHT22;22158;59.280;17.806;2023-05-27T01:07:59;8.20;99.90
35668;DHT22;22158;59.280;17.806;2023-05-27T01:10:36;8.20;99.90
35668;DHT22;22158;59.280;17.806;2023-05-27T01:16:05;8.10;99.90
35668;DHT22;22158;59.280;17.806;2023-05-27T01:18:32;8.10;99.90
35668;DHT22;22158;59.280;17.806;2023-05-27T01:21:06;8.10;99.90
35668;DHT22;22158;59.280;17.806;2023-05-27T01:23:32;8.10;99.90
35668;DHT22;22158;59.280;17.806;2023-05-27T01:25:58;8.10;99.90
35668;DHT22;22158;59.280;17.806;2023-05-27T01:28:24;8.10;99.90
35668;DHT22;22158;59.280;17.806;2023-05-27T01:30:51;8.10;99.90
35668;DHT22;22158;59.280;17.806;2023-05-27T01:33:21;8.00;99.90
35668;DHT22;22158;59.280;17.806;2023-05-27T01:35:54;8.00;99.90
35668;DHT22;22158;59.280;17.806;2023-05-27T01:38:24;8.00;99.90
35668;DHT22;22158;59.280;17.806;2023-05-27T01:40:50;8.00;99.90
35668;DHT22;22158;59.280;17.806;2023-05-27T01:43:18;8.00;99.90
35668;DHT22;22158;59.280;17.806;2023-05-27T01:45:43;7.90;99.90
35668;DHT22;22158;59.280;17.806;2023-05-27T01:48:09;7.90;99.90
35668;DHT22;22158;59.280;17.806;2023-05-27T01:50:35;7.90;99.90
35668;DHT22;22158;59.280;17.806;2023-05-27T01:53:02;7.90;99.90
35668;DHT22;22158;59.280;17.806;2023-05-27T01:55:28;7.90;99.90
35668;DHT22;22158;59.280;17.806;2023-05-27T01:57:54;7.80;99.90
35668;DHT22;22158;59.280;17.806;2023-05-27T02:00:20;7.80;99.90
35668;DHT22;22158;59.280;17.806;2023-05-27T02:02:45;7.90;99.90
35668;DHT22;22158;59.280;17.806;2023-05-27T02:05:11;7.80;99.90
35668;DHT22;22158;59.280;17.806;2023-05-27T02:07:37;7.80;99.90
35668;DHT22;22158;59.280;17.806;2023-05-27T02:10:02;7.80;99.90
35668;DHT22;22158;59.280;17.806;2023-05-27T02:12:28;7.80;99.90
35668;DHT22;22158;59.280;17.806;2023-05-27T02:14:53;7.90;99.90
35668;DHT22;22158;59.280;17.806;2023-05-27T02:17:19;7.90;99.90
35668;DHT22;22158;59.280;17.806;2023-05-27T02:19:44;7.90;99.90
35668;DHT22;22158;59.280;17.806;2023-05-27T02:22:10;7.90;99.90
35668;DHT22;22158;59.280;17.806;2023-05-27T02:24:36;7.90;99.90
35668;DHT22;22158;59.280;17.806;2023-05-27T02:27:01;8.00;99.90
35668;DHT22;22158;59.280;17.806;2023-05-27T02:29:27;8.00;99.90
35668;DHT22;22158;59.280;17.806;2023-05-27T02:31:53;8.00;99.90
35668;DHT22;22158;59.280;17.806;2023-05-27T02:34:18;8.10;99.90
35668;DHT22;22158;59.280;17.806;2023-05-27T02:36:44;8.10;99.90
35668;DHT22;22158;59.280;17.806;2023-05-27T02:39:10;8.00;99.90
35668;DHT22;22158;59.280;17.806;2023-05-27T02:41:36;8.10;99.90
35668;DHT22;22158;59.280;17.806;2023-05-27T02:44:02;8.10;99.90
35668;DHT22;22158;59.280;17.806;2023-05-27T02:46:28;8.10;99.90
35668;DHT22;22158;59.280;17.806;2023-05-27T02:48:54;8.10;99.90
35668;DHT22;22158;59.280;17.806;2023-05-27T02:51:21;8.20;99.90
35668;DHT22;22158;59.280;17.806;2023-05-27T02:53:47;8.10;99.90
35668;DHT22;22158;59.280;17.806;2023-05-27T02:56:13;8.10;99.90
35668;DHT22;22158;59.280;17.806;2023-05-27T02:58:39;8.10;99.90
35668;DHT22;22158;59.280;17.806;2023-05-27T03:01:04;8.20;99.90
35668;DHT22;22158;59.280;17.806;2023-05-27T03:03:30;8.20;99.90
35668;DHT22;22158;59.280;17.806;2023-05-27T03:05:56;8.20;99.90
35668;DHT22;22158;59.280;17.806;2023-05-27T03:08:21;8.20;99.90
35668;DHT22;22158;59.280;17.806;2023-05-27T03:10:47;8.30;99.90
35668;DHT22;22158;59.280;17.806;2023-05-27T03:13:13;8.30;99.90
35668;DHT22;22158;59.280;17.806;2023-05-27T03:15:39;8.40;99.90
35668;DHT22;22158;59.280;17.806;2023-05-27T03:18:04;8.40;99.90
35668;DHT22;22158;59.280;17.806;2023-05-27T03:20:30;8.50;99.90
35668;DHT22;22158;59.280;17.806;2023-05-27T03:22:56;8.60;99.90
35668;DHT22;22158;59.280;17.806;2023-05-27T03:25:22;8.70;99.90
35668;DHT22;22158;59.280;17.806;2023-05-27T03:27:47;8.80;99.90
35668;DHT22;22158;59.280;17.806;2023-05-27T03:30:13;8.90;99.90
35668;DHT22;22158;59.280;17.806;2023-05-27T03:32:39;9.00;99.90
35668;DHT22;22158;59.280;17.806;2023-05-27T03:35:05;9.00;99.90
35668;DHT22;22158;59.280;17.806;2023-05-27T03:37:30;9.00;99.90
35668;DHT22;22158;59.280;17.806;2023-05-27T03:39:56;9.10;99.90
35668;DHT22;22158;59.280;17.806;2023-05-27T03:42:22;9.10;99.90
35668;DHT22;22158;59.280;17.806;2023-05-27T03:44:48;9.20;99.90
35668;DHT22;22158;59.280;17.806;2023-05-27T03:47:13;9.20;99.90
35668;DHT22;22158;59.280;17.806;2023-05-27T03:49:42;9.30;99.90
35668;DHT22;22158;59.280;17.806;2023-05-27T03:52:08;9.30;99.90
35668;DHT22;22158;59.280;17.806;2023-05-27T03:54:33;9.30;99.90
35668;DHT22;22158;59.280;17.806;2023-05-27T03:56:59;9.40;99.90
35668;DHT22;22158;59.280;17.806;2023-05-27T03:59:25;9.50;99.90
35668;DHT22;22158;59.280;17.806;2023-05-27T04:01:50;9.60;99.90
35668;DHT22;22158;59.280;17.806;2023-05-27T04:04:16;9.60;99.90
35668;DHT22;22158;59.280;17.806;2023-05-27T04:06:42;9.70;99.90
35668;DHT22;22158;59.280;17.806;2023-05-27T04:09:07;9.80;99.90
35668;DHT22;22158;59.280;17.806;2023-05-27T04:11:33;9.90;99.90
35668;DHT22;22158;59.280;17.806;2023-05-27T04:13:59;10.00;99.90
35668;DHT22;22158;59.280;17.806;2023-05-27T04:16:25;10.00;99.90
35668;DHT22;22158;59.280;17.806;2023-05-27T04:18:51;10.10;99.90
35668;DHT22;22158;59.280;17.806;2023-05-27T04:21:17;10.20;99.90
35668;DHT22;22158;59.280;17.806;2023-05-27T04:23:43;10.20;99.90
35668;DHT22;22158;59.280;17.806;2023-05-27T04:26:08;10.30;99.90
35668;DHT22;22158;59.280;17.806;2023-05-27T04:28:34;10.40;99.90
35668;DHT22;22158;59.280;17.806;2023-05-27T04:31:00;10.50;99.90
35668;DHT22;22158;59.280;17.806;2023-05-27T04:33:26;10.50;99.90
35668;DHT22;22158;59.280;17.806;2023-05-27T04:35:52;10.50;99.90
35668;DHT22;22158;59.280;17.806;2023-05-27T04:38:19;10.50;99.90
35668;DHT22;22158;59.280;17.806;2023-05-27T04:40:47;10.60;99.90
35668;DHT22;22158;59.280;17.806;2023-05-27T04:43:22;10.60;99.90
35668;DHT22;22158;59.280;17.806;2023-05-27T04:45:48;10.70;99.90
35668;DHT22;22158;59.280;17.806;2023-05-27T04:48:15;10.70;99.90
35668;DHT22;22158;59.280;17.806;2023-05-27T04:50:41;10.70;99.90
35668;DHT22;22158;59.280;17.806;2023-05-27T04:53:07;10.70;99.90
35668;DHT22;22158;59.280;17.806;2023-05-27T04:55:34;10.80;99.90
35668;DHT22;22158;59.280;17.806;2023-05-27T04:58:00;10.80;99.90
35668;DHT22;22158;59.280;17.806;2023-05-27T05:00:29;10.90;99.90
35668;DHT22;22158;59.280;17.806;2023-05-27T05:03:07;10.90;99.90
35668;DHT22;22158;59.280;17.806;2023-05-27T05:05:34;11.00;99.90
35668;DHT22;22158;59.280;17.806;2023-05-27T05:08:00;11.10;99.90
35668;DHT22;22158;59.280;17.806;2023-05-27T05:10:26;11.10;99.90
35668;DHT22;22158;59.280;17.806;2023-05-27T05:12:52;11.10;99.90
35668;DHT22;22158;59.280;17.806;2023-05-27T05:15:17;11.10;99.90
35668;DHT22;22158;59.280;17.806;2023-05-27T05:17:43;11.00;99.90
35668;DHT22;22158;59.280;17.806;2023-05-27T05:20:09;11.00;99.90
35668;DHT22;22158;59.280;17.806;2023-05-27T05:22:35;10.90;99.90
35668;DHT22;22158;59.280;17.806;2023-05-27T05:25:01;10.90;99.90
35668;DHT22;22158;59.280;17.806;2023-05-27T05:27:27;10.90;99.90
35668;DHT22;22158;59.280;17.806;2023-05-27T05:29:53;10.90;99.90
35668;DHT22;22158;59.280;17.806;2023-05-27T05:32:19;11.00;99.90
35668;DHT22;22158;59.280;17.806;2023-05-27T05:34:45;11.10;99.90
35668;DHT22;22158;59.280;17.806;2023-05-27T05:37:10;11.10;99.90
35668;DHT22;22158;59.280;17.806;2023-05-27T05:39:36;11.00;99.90
35668;DHT22;22158;59.280;17.806;2023-05-27T05:42:02;11.00;99.90
35668;DHT22;22158;59.280;17.806;2023-05-27T05:44:28;11.10;99.90
35668;DHT22;22158;59.280;17.806;2023-05-27T05:46:54;11.20;99.90
35668;DHT22;22158;59.280;17.806;2023-05-27T05:49:20;11.30;99.90
35668;DHT22;22158;59.280;17.806;2023-05-27T05:51:46;11.40;99.90
35668;DHT22;22158;59.280;17.806;2023-05-27T05:54:11;11.60;98.90
35668;DHT22;22158;59.280;17.806;2023-05-27T05:56:37;11.60;98.50
35668;DHT22;22158;59.280;17.806;2023-05-27T05:59:02;11.70;97.90
35668;DHT22;22158;59.280;17.806;2023-05-27T06:01:28;11.80;96.40
35668;DHT22;22158;59.280;17.806;2023-05-27T06:03:54;11.90;96.00
35668;DHT22;22158;59.280;17.806;2023-05-27T06:06:21;11.90;95.70
35668;DHT22;22158;59.280;17.806;2023-05-27T06:08:46;12.10;95.60
35668;DHT22;22158;59.280;17.806;2023-05-27T06:11:12;12.10;94.50
35668;DHT22;22158;59.280;17.806;2023-05-27T06:13:39;12.20;94.00
35668;DHT22;22158;59.280;17.806;2023-05-27T06:16:05;12.30;93.10
35668;DHT22;22158;59.280;17.806;2023-05-27T06:18:31;12.40;94.30
35668;DHT22;22158;59.280;17.806;2023-05-27T06:20:56;12.50;94.00
35668;DHT22;22158;59.280;17.806;2023-05-27T06:23:22;12.60;93.90
35668;DHT22;22158;59.280;17.806;2023-05-27T06:25:47;12.80;93.90
35668;DHT22;22158;59.280;17.806;2023-05-27T06:28:13;12.90;93.20
35668;DHT22;22158;59.280;17.806;2023-05-27T06:30:38;13.10;93.60
35668;DHT22;22158;59.280;17.806;2023-05-27T06:33:05;13.30;93.30
35668;DHT22;22158;59.280;17.806;2023-05-27T06:35:30;13.50;93.60
35668;DHT22;22158;59.280;17.806;2023-05-27T06:37:58;13.70;91.90
35668;DHT22;22158;59.280;17.806;2023-05-27T06:40:24;13.80;90.60
35668;DHT22;22158;59.280;17.806;2023-05-27T06:42:50;13.80;90.50
35668;DHT22;22158;59.280;17.806;2023-05-27T06:45:15;13.90;90.50
35668;DHT22;22158;59.280;17.806;2023-05-27T06:47:41;13.80;90.00
35668;DHT22;22158;59.280;17.806;2023-05-27T06:50:07;13.90;90.30
35668;DHT22;22158;59.280;17.806;2023-05-27T06:52:33;13.90;90.20
35668;DHT22;22158;59.280;17.806;2023-05-27T06:54:58;14.00;89.80
35668;DHT22;22158;59.280;17.806;2023-05-27T06:57:24;14.10;86.40
35668;DHT22;22158;59.280;17.806;2023-05-27T06:59:49;14.20;86.90
35668;DHT22;22158;59.280;17.806;2023-05-27T07:02:15;14.30;85.60
35668;DHT22;22158;59.280;17.806;2023-05-27T07:04:41;14.50;85.90
35668;DHT22;22158;59.280;17.806;2023-05-27T07:07:06;14.60;85.20
35668;DHT22;22158;59.280;17.806;2023-05-27T07:09:32;14.70;84.30
35668;DHT22;22158;59.280;17.806;2023-05-27T07:12:00;14.80;83.90
35668;DHT22;22158;59.280;17.806;2023-05-27T07:14:26;14.90;83.80
35668;DHT22;22158;59.280;17.806;2023-05-27T07:16:51;14.90;81.30
35668;DHT22;22158;59.280;17.806;2023-05-27T07:19:17;14.90;82.20
35668;DHT22;22158;59.280;17.806;2023-05-27T07:21:43;15.00;81.00
35668;DHT22;22158;59.280;17.806;2023-05-27T07:24:08;15.10;77.50
35668;DHT22;22158;59.280;17.806;2023-05-27T07:26:34;15.10;80.80
35668;DHT22;22158;59.280;17.806;2023-05-27T07:29:00;15.00;81.00
35668;DHT22;22158;59.280;17.806;2023-05-27T07:31:27;15.10;79.10
35668;DHT22;22158;59.280;17.806;2023-05-27T07:33:53;15.10;77.80
35668;DHT22;22158;59.280;17.806;2023-05-27T07:36:19;15.20;75.30
35668;DHT22;22158;59.280;17.806;2023-05-27T07:38:45;15.30;73.50
35668;DHT22;22158;59.280;17.806;2023-05-27T07:41:10;15.40;74.20
35668;DHT22;22158;59.280;17.806;2023-05-27T07:43:36;15.50;73.20
35668;DHT22;22158;59.280;17.806;2023-05-27T07:46:02;15.60;69.40
35668;DHT22;22158;59.280;17.806;2023-05-27T07:48:28;15.60;67.10
35668;DHT22;22158;59.280;17.806;2023-05-27T07:50:54;15.70;66.50
35668;DHT22;22158;59.280;17.806;2023-05-27T07:53:20;15.70;66.40
35668;DHT22;22158;59.280;17.806;2023-05-27T07:55:46;15.70;69.30
35668;DHT22;22158;59.280;17.806;2023-05-27T07:58:11;15.80;71.50
35668;DHT22;22158;59.280;17.806;2023-05-27T08:00:37;16.00;70.10
35668;DHT22;22158;59.280;17.806;2023-05-27T08:03:02;16.10;62.90
35668;DHT22;22158;59.280;17.806;2023-05-27T08:05:28;16.10;62.50
35668;DHT22;22158;59.280;17.806;2023-05-27T08:07:54;16.10;62.50
35668;DHT22;22158;59.280;17.806;2023-05-27T08:10:20;16.10;60.80
35668;DHT22;22158;59.280;17.806;2023-05-27T08:12:45;16.20;64.30
35668;DHT22;22158;59.280;17.806;2023-05-27T08:15:11;16.30;61.80
35668;DHT22;22158;59.280;17.806;2023-05-27T08:17:37;16.20;62.10
35668;DHT22;22158;59.280;17.806;2023-05-27T08:20:02;16.30;60.10
35668;DHT22;22158;59.280;17.806;2023-05-27T08:22:29;16.30;59.30
35668;DHT22;22158;59.280;17.806;2023-05-27T08:24:55;16.50;57.70
35668;DHT22;22158;59.280;17.806;2023-05-27T08:27:30;16.50;58.60
35668;DHT22;22158;59.280;17.806;2023-05-27T08:30:06;16.50;56.50
35668;DHT22;22158;59.280;17.806;2023-05-27T08:32:33;16.60;59.00
35668;DHT22;22158;59.280;17.806;2023-05-27T08:34:59;16.60;58.70
35668;DHT22;22158;59.280;17.806;2023-05-27T08:37:25;16.70;58.20
35668;DHT22;22158;59.280;17.806;2023-05-27T08:39:51;16.80;58.80
35668;DHT22;22158;59.280;17.806;2023-05-27T08:42:16;16.90;55.50
35668;DHT22;22158;59.280;17.806;2023-05-27T08:44:42;16.90;57.80
35668;DHT22;22158;59.280;17.806;2023-05-27T08:47:08;16.70;58.90
35668;DHT22;22158;59.280;17.806;2023-05-27T08:49:33;16.80;57.00
35668;DHT22;22158;59.280;17.806;2023-05-27T08:52:01;16.80;56.10
35668;DHT22;22158;59.280;17.806;2023-05-27T08:54:27;16.70;58.50
35668;DHT22;22158;59.280;17.806;2023-05-27T08:56:55;16.90;60.00
35668;DHT22;22158;59.280;17.806;2023-05-27T08:59:23;17.10;59.10
35668;DHT22;22158;59.280;17.806;2023-05-27T09:01:50;17.20;56.40
35668;DHT22;22158;59.280;17.806;2023-05-27T09:04:16;17.20;57.50
35668;DHT22;22158;59.280;17.806;2023-05-27T09:06:42;17.40;57.60
35668;DHT22;22158;59.280;17.806;2023-05-27T09:09:08;17.50;57.20
35668;DHT22;22158;59.280;17.806;2023-05-27T09:11:39;17.50;57.30
35668;DHT22;22158;59.280;17.806;2023-05-27T09:14:05;17.70;56.60
35668;DHT22;22158;59.280;17.806;2023-05-27T09:16:31;17.70;58.60
35668;DHT22;22158;59.280;17.806;2023-05-27T09:18:56;17.90;58.40
35668;DHT22;22158;59.280;17.806;2023-05-27T09:21:24;17.90;58.40
35668;DHT22;22158;59.280;17.806;2023-05-27T09:23:55;18.00;56.30
35668;DHT22;22158;59.280;17.806;2023-05-27T09:26:21;18.00;55.00
35668;DHT22;22158;59.280;17.806;2023-05-27T09:28:48;18.00;57.70
35668;DHT22;22158;59.280;17.806;2023-05-27T09:31:15;17.90;57.30
35668;DHT22;22158;59.280;17.806;2023-05-27T09:33:40;17.60;57.80
35668;DHT22;22158;59.280;17.806;2023-05-27T09:36:08;17.70;57.10
35668;DHT22;22158;59.280;17.806;2023-05-27T09:38:35;17.80;59.10
35668;DHT22;22158;59.280;17.806;2023-05-27T09:41:02;17.90;57.10
35668;DHT22;22158;59.280;17.806;2023-05-27T09:43:29;18.10;57.60
35668;DHT22;22158;59.280;17.806;2023-05-27T09:46:02;18.40;56.50
35668;DHT22;22158;59.280;17.806;2023-05-27T09:48:30;18.50;55.90
35668;DHT22;22158;59.280;17.806;2023-05-27T09:50:58;18.60;56.70
35668;DHT22;22158;59.280;17.806;2023-05-27T09:53:26;18.50;56.80
35668;DHT22;22158;59.280;17.806;2023-05-27T09:55:55;18.50;58.30
35668;DHT22;22158;59.280;17.806;2023-05-27T09:58:21;18.60;57.80
35668;DHT22;22158;59.280;17.806;2023-05-27T10:00:48;18.70;59.40
35668;DHT22;22158;59.280;17.806;2023-05-27T10:03:16;18.90;58.10
35668;DHT22;22158;59.280;17.806;2023-05-27T10:05:43;19.10;56.70
35668;DHT22;22158;59.280;17.806;2023-05-27T10:08:11;19.20;57.00
35668;DHT22;22158;59.280;17.806;2023-05-27T10:10:37;19.20;57.40
35668;DHT22;22158;59.280;17.806;2023-05-27T10:13:03;19.20;58.30
35668;DHT22;22158;59.280;17.806;2023-05-27T10:15:30;19.30;57.60
35668;DHT22;22158;59.280;17.806;2023-05-27T10:18:03;19.40;61.00
35668;DHT22;22158;59.280;17.806;2023-05-27T10:20:41;19.40;58.60
35668;DHT22;22158;59.280;17.806;2023-05-27T10:23:15;19.20;58.30
35668;DHT22;22158;59.280;17.806;2023-05-27T10:25:53;19.40;58.60
35668;DHT22;22158;59.280;17.806;2023-05-27T10:28:32;19.60;61.40
35668;DHT22;22158;59.280;17.806;2023-05-27T10:33:44;20.10;59.10
35668;DHT22;22158;59.280;17.806;2023-05-27T10:36:12;20.40;59.10
35668;DHT22;22158;59.280;17.806;2023-05-27T10:38:38;20.50;57.90
35668;DHT22;22158;59.280;17.806;2023-05-27T10:41:06;20.30;57.80
35668;DHT22;22158;59.280;17.806;2023-05-27T10:43:32;20.10;57.50
35668;DHT22;22158;59.280;17.806;2023-05-27T10:46:13;19.80;58.10
35668;DHT22;22158;59.280;17.806;2023-05-27T10:48:39;19.50;58.90
35668;DHT22;22158;59.280;17.806;2023-05-27T10:51:05;19.70;60.80
35668;DHT22;22158;59.280;17.806;2023-05-27T10:53:34;20.00;60.20
35668;DHT22;22158;59.280;17.806;2023-05-27T10:56:00;19.90;59.10
35668;DHT22;22158;59.280;17.806;2023-05-27T10:58:26;20.20;59.80
35668;DHT22;22158;59.280;17.806;2023-05-27T11:00:53;20.30;60.40
35668;DHT22;22158;59.280;17.806;2023-05-27T11:03:24;20.30;58.60
35668;DHT22;22158;59.280;17.806;2023-05-27T11:06:04;20.30;58.90
35668;DHT22;22158;59.280;17.806;2023-05-27T11:08:31;20.30;61.90
35668;DHT22;22158;59.280;17.806;2023-05-27T11:11:01;20.40;60.10
35668;DHT22;22158;59.280;17.806;2023-05-27T11:13:35;20.40;59.00
35668;DHT22;22158;59.280;17.806;2023-05-27T11:16:02;20.50;60.50
35668;DHT22;22158;59.280;17.806;2023-05-27T11:18:45;20.60;60.70
35668;DHT22;22158;59.280;17.806;2023-05-27T11:21:12;20.60;58.20
35668;DHT22;22158;59.280;17.806;2023-05-27T11:23:43;20.40;60.30
35668;DHT22;22158;59.280;17.806;2023-05-27T11:26:16;20.30;59.30
35668;DHT22;22158;59.280;17.806;2023-05-27T11:28:53;20.40;60.60
35668;DHT22;22158;59.280;17.806;2023-05-27T11:31:20;20.60;59.90
35668;DHT22;22158;59.280;17.806;2023-05-27T11:33:49;20.60;61.60
35668;DHT22;22158;59.280;17.806;2023-05-27T11:36:15;20.60;62.40
35668;DHT22;22158;59.280;17.806;2023-05-27T11:38:48;20.70;58.60
35668;DHT22;22158;59.280;17.806;2023-05-27T11:41:14;20.60;60.80
35668;DHT22;22158;59.280;17.806;2023-05-27T11:43:56;20.70;61.50
35668;DHT22;22158;59.280;17.806;2023-05-27T11:46:23;20.80;59.60
35668;DHT22;22158;59.280;17.806;2023-05-27T11:48:49;20.90;59.10
35668;DHT22;22158;59.280;17.806;2023-05-27T11:51:15;20.90;62.10
35668;DHT22;22158;59.280;17.806;2023-05-27T11:53:45;20.60;60.60
35668;DHT22;22158;59.280;17.806;2023-05-27T11:56:11;20.60;61.90
35668;DHT22;22158;59.280;17.806;2023-05-27T11:58:36;20.60;64.80
35668;DHT22;22158;59.280;17.806;2023-05-27T12:01:05;20.80;64.30
35668;DHT22;22158;59.280;17.806;2023-05-27T12:03:33;21.00;59.70
35668;DHT22;22158;59.280;17.806;2023-05-27T12:05:59;20.80;62.40
35668;DHT22;22158;59.280;17.806;2023-05-27T12:08:25;20.70;62.80
35668;DHT22;22158;59.280;17.806;2023-05-27T12:10:50;20.80;61.30
35668;DHT22;22158;59.280;17.806;2023-05-27T12:13:19;21.00;64.50
35668;DHT22;22158;59.280;17.806;2023-05-27T12:15:45;21.10;63.80
35668;DHT22;22158;59.280;17.806;2023-05-27T12:18:11;21.00;61.80
35668;DHT22;22158;59.280;17.806;2023-05-27T12:20:36;21.10;62.70
35668;DHT22;22158;59.280;17.806;2023-05-27T12:23:02;21.40;62.60
35668;DHT22;22158;59.280;17.806;2023-05-27T12:25:27;21.50;62.40
35668;DHT22;22158;59.280;17.806;2023-05-27T12:27:53;21.50;62.10
35668;DHT22;22158;59.280;17.806;2023-05-27T12:30:18;21.80;62.50
35668;DHT22;22158;59.280;17.806;2023-05-27T12:32:44;21.70;60.90
35668;DHT22;22158;59.280;17.806;2023-05-27T12:35:10;21.60;61.00
35668;DHT22;22158;59.280;17.806;2023-05-27T12:37:36;21.40;63.70
35668;DHT22;22158;59.280;17.806;2023-05-27T12:40:01;21.40;63.00
35668;DHT22;22158;59.280;17.806;2023-05-27T12:42:30;21.40;62.00
35668;DHT22;22158;59.280;17.806;2023-05-27T12:44:56;21.30;62.10
35668;DHT22;22158;59.280;17.806;2023-05-27T12:47:21;21.40;62.00
35668;DHT22;22158;59.280;17.806;2023-05-27T12:49:47;21.40;63.10
35668;DHT22;22158;59.280;17.806;2023-05-27T12:52:13;21.50;62.00
35668;DHT22;22158;59.280;17.806;2023-05-27T12:54:39;21.60;62.20
35668;DHT22;22158;59.280;17.806;2023-05-27T12:57:05;21.90;64.40
35668;DHT22;22158;59.280;17.806;2023-05-27T12:59:31;21.70;61.50
35668;DHT22;22158;59.280;17.806;2023-05-27T13:01:58;22.00;63.40
35668;DHT22;22158;59.280;17.806;2023-05-27T13:04:24;21.90;59.50
35668;DHT22;22158;59.280;17.806;2023-05-27T13:06:50;21.70;62.80
35668;DHT22;22158;59.280;17.806;2023-05-27T13:09:15;21.50;63.40
35668;DHT22;22158;59.280;17.806;2023-05-27T13:11:41;21.80;60.90
35668;DHT22;22158;59.280;17.806;2023-05-27T13:14:07;22.00;61.80
35668;DHT22;22158;59.280;17.806;2023-05-27T13:16:33;22.00;60.80
35668;DHT22;22158;59.280;17.806;2023-05-27T13:18:59;22.20;62.40
35668;DHT22;22158;59.280;17.806;2023-05-27T13:21:24;22.40;60.00
35668;DHT22;22158;59.280;17.806;2023-05-27T13:23:51;22.30;58.30
35668;DHT22;22158;59.280;17.806;2023-05-27T13:26:16;22.20;60.60
35668;DHT22;22158;59.280;17.806;2023-05-27T13:28:42;22.10;60.60
35668;DHT22;22158;59.280;17.806;2023-05-27T13:31:08;21.90;60.30
35668;DHT22;22158;59.280;17.806;2023-05-27T13:33:33;21.80;60.30
35668;DHT22;22158;59.280;17.806;2023-05-27T13:35:59;21.90;60.20
35668;DHT22;22158;59.280;17.806;2023-05-27T13:38:25;21.60;62.00
35668;DHT22;22158;59.280;17.806;2023-05-27T13:40:50;22.00;59.80
35668;DHT22;22158;59.280;17.806;2023-05-27T13:43:16;22.10;60.20
35668;DHT22;22158;59.280;17.806;2023-05-27T13:45:42;22.30;59.20
35668;DHT22;22158;59.280;17.806;2023-05-27T13:48:07;22.60;59.50
35668;DHT22;22158;59.280;17.806;2023-05-27T13:50:34;23.00;62.10
35668;DHT22;22158;59.280;17.806;2023-05-27T13:53:00;23.00;59.90
35668;DHT22;22158;59.280;17.806;2023-05-27T13:55:26;23.20;60.30
35668;DHT22;22158;59.280;17.806;2023-05-27T13:57:51;23.20;58.70
35668;DHT22;22158;59.280;17.806;2023-05-27T14:00:17;23.20;57.80
35668;DHT22;22158;59.280;17.806;2023-05-27T14:02:44;23.00;59.30
35668;DHT22;22158;59.280;17.806;2023-05-27T14:05:10;23.20;58.80
35668;DHT22;22158;59.280;17.806;2023-05-27T14:07:42;22.90;57.60
35668;DHT22;22158;59.280;17.806;2023-05-27T14:10:12;22.90;59.00
35668;DHT22;22158;59.280;17.806;2023-05-27T14:12:38;23.00;58.40
35668;DHT22;22158;59.280;17.806;2023-05-27T14:15:04;23.10;59.10
35668;DHT22;22158;59.280;17.806;2023-05-27T14:17:30;23.30;58.30
35668;DHT22;22158;59.280;17.806;2023-05-27T14:19:56;23.30;58.10
35668;DHT22;22158;59.280;17.806;2023-05-27T14:22:22;23.30;57.20
35668;DHT22;22158;59.280;17.806;2023-05-27T14:24:47;23.10;56.70
35668;DHT22;22158;59.280;17.806;2023-05-27T14:27:13;22.80;55.80
35668;DHT22;22158;59.280;17.806;2023-05-27T14:29:39;22.90;56.90
35668;DHT22;22158;59.280;17.806;2023-05-27T14:32:06;22.90;57.50
35668;DHT22;22158;59.280;17.806;2023-05-27T14:34:31;23.00;58.20
35668;DHT22;22158;59.280;17.806;2023-05-27T14:36:57;23.20;56.10
35668;DHT22;22158;59.280;17.806;2023-05-27T14:39:22;23.10;56.90
35668;DHT22;22158;59.280;17.806;2023-05-27T14:41:48;23.10;56.80
35668;DHT22;22158;59.280;17.806;2023-05-27T14:44:13;23.20;57.60
35668;DHT22;22158;59.280;17.806;2023-05-27T14:46:39;23.10;56.80
35668;DHT22;22158;59.280;17.806;2023-05-27T14:49:05;23.00;56.20
35668;DHT22;22158;59.280;17.806;2023-05-27T14:51:30;23.00;55.70
35668;DHT22;22158;59.280;17.806;2023-05-27T14:53:56;23.00;55.70
35668;DHT22;22158;59.280;17.806;2023-05-27T14:56:22;22.60;56.90
35668;DHT22;22158;59.280;17.806;2023-05-27T14:58:47;23.00;57.20
35668;DHT22;22158;59.280;17.806;2023-05-27T15:01:16;22.90;56.90
35668;DHT22;22158;59.280;17.806;2023-05-27T15:03:42;22.90;56.80
35668;DHT22;22158;59.280;17.806;2023-05-27T15:06:08;22.60;57.00
35668;DHT22;22158;59.280;17.806;2023-05-27T15:08:35;22.70;56.60
35668;DHT22;22158;59.280;17.806;2023-05-27T15:11:01;22.80;56.60
35668;DHT22;22158;59.280;17.806;2023-05-27T15:13:27;23.10;55.20
35668;DHT22;22158;59.280;17.806;2023-05-27T15:15:53;23.00;55.30
35668;DHT22;22158;59.280;17.806;2023-05-27T15:18:18;22.80;55.80
35668;DHT22;22158;59.280;17.806;2023-05-27T15:20:44;22.60;56.80
35668;DHT22;22158;59.280;17.806;2023-05-27T15:23:10;22.50;56.20